createdAt,value
2016-11-10T00:00:43.265Z,0
2016-11-10T00:01:43.101Z,0
2016-11-10T00:02:42.975Z,0
2016-11-10T00:03:43.470Z,0
2016-11-10T00:04:42.967Z,0
2016-11-10T00:05:43.586Z,0
2016-11-10T00:06:43.437Z,0
2016-11-10T00:07:43.092Z,0
2016-11-10T00:08:43.168Z,0
2016-11-10T00:09:42.945Z,0
2016-11-10T00:10:42.891Z,0
2016-11-10T00:11:43.321Z,0
2016-11-10T00:12:44.469Z,0
2016-11-10T00:13:43.592Z,0
2016-11-10T00:14:43.150Z,0
2016-11-10T00:15:43.421Z,0
2016-11-10T00:16:43.026Z,0
2016-11-10T00:17:43.203Z,0
2016-11-10T00:18:42.469Z,0
2016-11-10T00:19:43.020Z,0
2016-11-10T00:20:43.108Z,0
2016-11-10T00:21:43.631Z,0
2016-11-10T00:22:42.947Z,0
2016-11-10T00:23:43.627Z,0
2016-11-10T00:24:43.140Z,0
2016-11-10T00:25:43.948Z,0
2016-11-10T00:26:43.180Z,0
2016-11-10T00:27:43.860Z,0
2016-11-10T00:28:42.953Z,0
2016-11-10T00:29:44.052Z,0
2016-11-10T00:30:42.695Z,0
2016-11-10T00:31:43.259Z,0
2016-11-10T00:32:43.489Z,0
2016-11-10T00:33:43.799Z,0
2016-11-10T00:34:43.159Z,0
2016-11-10T00:35:43.198Z,0
2016-11-10T00:36:43.622Z,0
2016-11-10T00:37:43.829Z,0
2016-11-10T00:38:42.982Z,0
2016-11-10T00:39:43.014Z,0
2016-11-10T00:40:43.884Z,0
2016-11-10T00:41:42.910Z,0
2016-11-10T00:42:43.751Z,0
2016-11-10T00:43:42.951Z,0
2016-11-10T00:44:44.339Z,0
2016-11-10T00:45:43.454Z,0
2016-11-10T00:46:44.320Z,0
2016-11-10T00:47:43.797Z,0
2016-11-10T00:48:43.393Z,0
2016-11-10T00:49:43.407Z,0
2016-11-10T00:50:44.843Z,0
2016-11-10T00:51:43.819Z,0
2016-11-10T00:52:43.232Z,0
2016-11-10T00:53:44.295Z,0
2016-11-10T00:54:44.015Z,0
2016-11-10T00:55:43.749Z,0
2016-11-10T00:56:42.941Z,0
2016-11-10T00:57:43.817Z,0
2016-11-10T00:58:43.778Z,0
2016-11-10T00:59:43.990Z,0
2016-11-10T01:00:43.294Z,0
2016-11-10T01:01:43.905Z,0
2016-11-10T01:02:44.109Z,0
2016-11-10T01:03:43.373Z,0
2016-11-10T01:04:43.703Z,0
2016-11-10T01:05:44.879Z,0
2016-11-10T01:06:44.323Z,0
2016-11-10T01:07:44.054Z,0
2016-11-10T01:08:44.662Z,0
2016-11-10T01:09:43.390Z,0
2016-11-10T01:10:44.395Z,0
2016-11-10T01:11:44.693Z,0
2016-11-10T01:12:43.865Z,0
2016-11-10T01:13:45.191Z,0
2016-11-10T01:14:43.451Z,0
2016-11-10T01:15:44.578Z,0
2016-11-10T01:16:43.167Z,0
2016-11-10T01:17:44.625Z,0
2016-11-10T01:18:44.744Z,0
2016-11-10T01:19:43.709Z,0
2016-11-10T01:20:44.512Z,0
2016-11-10T01:21:43.776Z,0
2016-11-10T01:22:44.259Z,0
2016-11-10T01:23:43.374Z,0
2016-11-10T01:24:43.679Z,0
2016-11-10T01:25:44.835Z,0
2016-11-10T01:26:44.254Z,0
2016-11-10T01:27:44.021Z,0
2016-11-10T01:28:44.335Z,0
2016-11-10T01:29:44.016Z,0
2016-11-10T01:30:44.534Z,0
2016-11-10T01:31:44.126Z,0
2016-11-10T01:32:44.140Z,0
2016-11-10T01:33:44.482Z,0
2016-11-10T01:34:44.276Z,0
2016-11-10T01:35:44.585Z,0
2016-11-10T01:36:45.074Z,0
2016-11-10T01:37:44.054Z,0
2016-11-10T01:38:43.975Z,0
2016-11-10T01:39:44.117Z,0
2016-11-10T01:40:44.785Z,0
2016-11-10T01:41:44.617Z,0
2016-11-10T01:42:45.127Z,0
2016-11-10T01:43:44.399Z,0
2016-11-10T01:44:44.384Z,0
2016-11-10T01:45:44.469Z,0
2016-11-10T01:46:44.813Z,0
2016-11-10T01:47:44.647Z,0
2016-11-10T01:48:44.747Z,0
2016-11-10T01:49:45.416Z,0
2016-11-10T01:50:44.645Z,0
2016-11-10T01:51:45.225Z,0
2016-11-10T01:52:44.681Z,0
2016-11-10T01:53:44.291Z,0
2016-11-10T01:54:45.010Z,0
2016-11-10T01:55:44.818Z,0
2016-11-10T01:56:44.217Z,0
2016-11-10T01:57:45.155Z,0
2016-11-10T01:58:45.032Z,0
2016-11-10T01:59:44.822Z,0
2016-11-10T02:00:44.140Z,0
2016-11-10T02:01:44.220Z,0
2016-11-10T02:02:45.697Z,0
2016-11-10T02:03:45.998Z,0
2016-11-10T02:04:44.451Z,0
2016-11-10T02:05:45.030Z,0
2016-11-10T02:06:44.720Z,0
2016-11-10T02:07:45.093Z,0
2016-11-10T02:08:44.917Z,0
2016-11-10T02:09:45.518Z,0
2016-11-10T02:10:44.637Z,0
2016-11-10T02:11:44.603Z,0
2016-11-10T02:12:44.679Z,0
2016-11-10T02:13:44.397Z,0
2016-11-10T02:14:45.092Z,0
2016-11-10T02:15:44.107Z,0
2016-11-10T02:16:44.984Z,0
2016-11-10T02:17:44.716Z,0
2016-11-10T02:18:45.424Z,0
2016-11-10T02:19:44.577Z,0
2016-11-10T02:20:44.754Z,0
2016-11-10T02:21:44.834Z,0
2016-11-10T02:22:45.195Z,0
2016-11-10T02:23:45.408Z,0
2016-11-10T02:24:44.645Z,0
2016-11-10T02:25:45.366Z,0
2016-11-10T02:26:45.484Z,0
2016-11-10T02:27:44.226Z,0
2016-11-10T02:28:44.965Z,0
2016-11-10T02:29:46.015Z,0
2016-11-10T02:30:45.179Z,0
2016-11-10T02:31:45.629Z,0
2016-11-10T02:32:45.065Z,0
2016-11-10T02:33:45.283Z,0
2016-11-10T02:34:45.428Z,0
2016-11-10T02:35:45.687Z,0
2016-11-10T02:36:45.524Z,0
2016-11-10T02:37:45.152Z,0
2016-11-10T02:38:45.364Z,0
2016-11-10T02:39:44.681Z,0
2016-11-10T02:40:45.646Z,0
2016-11-10T02:41:45.136Z,0
2016-11-10T02:42:45.851Z,0
2016-11-10T02:43:45.163Z,0
2016-11-10T02:44:45.239Z,0
2016-11-10T02:45:45.353Z,0
2016-11-10T02:46:45.776Z,0
2016-11-10T02:47:45.636Z,0
2016-11-10T02:48:45.718Z,0
2016-11-10T02:49:44.932Z,0
2016-11-10T02:50:44.795Z,0
2016-11-10T02:51:45.301Z,0
2016-11-10T02:52:44.918Z,0
2016-11-10T02:53:45.318Z,0
2016-11-10T02:54:45.044Z,0
2016-11-10T02:55:45.717Z,0
2016-11-10T02:56:45.075Z,0
2016-11-10T02:57:45.652Z,0
2016-11-10T02:58:45.227Z,0
2016-11-10T02:59:44.962Z,0
2016-11-10T03:00:44.930Z,0
2016-11-10T03:01:46.087Z,0
2016-11-10T03:02:46.005Z,0
2016-11-10T03:03:45.587Z,0
2016-11-10T03:04:45.303Z,0
2016-11-10T03:05:45.589Z,0
2016-11-10T03:06:45.015Z,0
2016-11-10T03:07:45.589Z,0
2016-11-10T03:08:45.298Z,0
2016-11-10T03:09:45.723Z,0
2016-11-10T03:10:45.318Z,0
2016-11-10T03:11:45.119Z,0
2016-11-10T03:12:45.524Z,0
2016-11-10T03:13:46.151Z,0
2016-11-10T03:14:45.886Z,0
2016-11-10T03:15:45.260Z,0
2016-11-10T03:16:46.231Z,0
2016-11-10T03:17:45.732Z,0
2016-11-10T03:18:45.604Z,0
2016-11-10T03:19:45.835Z,0
2016-11-10T03:20:45.434Z,0
2016-11-10T03:21:46.123Z,0
2016-11-10T03:22:46.723Z,0
2016-11-10T03:23:45.263Z,0
2016-11-10T03:24:45.945Z,0
2016-11-10T03:25:44.994Z,0
2016-11-10T03:26:46.588Z,0
2016-11-10T03:27:45.643Z,0
2016-11-10T03:28:45.193Z,0
2016-11-10T03:29:46.151Z,0
2016-11-10T03:30:45.915Z,0
2016-11-10T03:31:45.949Z,0
2016-11-10T03:32:45.760Z,0
2016-11-10T03:33:45.831Z,0
2016-11-10T03:34:46.724Z,0
2016-11-10T03:35:46.233Z,0
2016-11-10T03:36:46.032Z,0
2016-11-10T03:37:46.725Z,0
2016-11-10T03:38:45.680Z,0
2016-11-10T03:39:46.156Z,0
2016-11-10T03:40:45.178Z,0
2016-11-10T03:41:46.204Z,0
2016-11-10T03:42:45.741Z,0
2016-11-10T03:43:45.205Z,0
2016-11-10T03:44:45.849Z,0
2016-11-10T03:45:45.980Z,0
2016-11-10T03:46:45.940Z,0
2016-11-10T03:47:46.881Z,0
2016-11-10T03:48:46.106Z,0
2016-11-10T03:49:45.695Z,0
2016-11-10T03:50:46.186Z,0
2016-11-10T03:51:45.951Z,0
2016-11-10T03:52:45.734Z,0
2016-11-10T03:53:45.935Z,0
2016-11-10T03:54:47.025Z,0
2016-11-10T03:55:46.602Z,0
2016-11-10T03:56:46.242Z,0
2016-11-10T03:57:46.016Z,0
2016-11-10T03:58:45.779Z,0
2016-11-10T03:59:46.854Z,0
2016-11-10T04:00:46.056Z,0
2016-11-10T04:01:45.964Z,0
2016-11-10T04:02:46.919Z,0
2016-11-10T04:03:46.106Z,0
2016-11-10T04:04:47.162Z,0
2016-11-10T04:05:45.799Z,0
2016-11-10T04:06:46.575Z,0
2016-11-10T04:07:45.542Z,0
2016-11-10T04:08:46.544Z,0
2016-11-10T04:09:46.058Z,0
2016-11-10T04:10:46.433Z,0
2016-11-10T04:11:45.951Z,0
2016-11-10T04:12:45.876Z,0
2016-11-10T04:13:46.451Z,0
2016-11-10T04:14:45.752Z,0
2016-11-10T04:15:46.030Z,0
2016-11-10T04:16:46.446Z,0
2016-11-10T04:17:45.913Z,0
2016-11-10T04:18:45.913Z,0
2016-11-10T04:19:45.861Z,0
2016-11-10T04:20:46.858Z,0
2016-11-10T04:21:46.384Z,0
2016-11-10T04:22:46.702Z,0
2016-11-10T04:23:47.180Z,0
2016-11-10T04:24:46.433Z,0
2016-11-10T04:25:47.003Z,0
2016-11-10T04:26:47.283Z,0
2016-11-10T04:27:46.855Z,0
2016-11-10T04:28:46.381Z,0
2016-11-10T04:29:47.330Z,0
2016-11-10T04:30:48.014Z,0
2016-11-10T04:31:46.625Z,0
2016-11-10T04:32:46.818Z,0
2016-11-10T04:33:46.463Z,0
2016-11-10T04:34:47.893Z,0
2016-11-10T04:35:46.801Z,0
2016-11-10T04:36:46.854Z,0
2016-11-10T04:37:46.775Z,0
2016-11-10T04:38:46.686Z,0
2016-11-10T04:39:46.930Z,0
2016-11-10T04:40:46.091Z,0
2016-11-10T04:41:47.022Z,0
2016-11-10T04:42:45.994Z,0
2016-11-10T04:43:47.186Z,0
2016-11-10T04:44:46.169Z,0
2016-11-10T04:45:46.608Z,0
2016-11-10T04:46:47.143Z,0
2016-11-10T04:47:46.756Z,0
2016-11-10T04:48:46.824Z,0
2016-11-10T04:49:47.197Z,0
2016-11-10T04:50:47.329Z,0
2016-11-10T04:51:47.533Z,0
2016-11-10T04:52:47.528Z,0
2016-11-10T04:53:47.459Z,0
2016-11-10T04:54:46.983Z,0
2016-11-10T04:55:47.468Z,0
2016-11-10T04:56:46.839Z,0
2016-11-10T04:57:47.412Z,0
2016-11-10T04:58:47.937Z,0
2016-11-10T04:59:47.348Z,0
2016-11-10T05:00:47.292Z,0
2016-11-10T05:01:46.765Z,0
2016-11-10T05:02:47.010Z,0
2016-11-10T05:03:46.567Z,0
2016-11-10T05:04:47.172Z,0
2016-11-10T05:05:46.448Z,0
2016-11-10T05:06:47.877Z,0
2016-11-10T05:07:48.359Z,0
2016-11-10T05:08:47.355Z,0
2016-11-10T05:09:46.904Z,0
2016-11-10T05:10:48.539Z,0
2016-11-10T05:11:47.494Z,0
2016-11-10T05:12:48.643Z,0
2016-11-10T05:13:48.005Z,0
2016-11-10T05:14:48.151Z,0
2016-11-10T05:15:47.254Z,0
2016-11-10T05:16:48.144Z,0
2016-11-10T05:17:47.016Z,0
2016-11-10T05:18:47.345Z,0
2016-11-10T05:19:48.758Z,0
2016-11-10T05:20:47.427Z,0
2016-11-10T05:21:47.219Z,0
2016-11-10T05:22:48.297Z,0
2016-11-10T05:23:48.029Z,0
2016-11-10T05:24:47.639Z,0
2016-11-10T05:25:47.491Z,0
2016-11-10T05:26:47.974Z,0
2016-11-10T05:27:47.308Z,0
2016-11-10T05:28:48.804Z,0
2016-11-10T05:29:47.273Z,0
2016-11-10T05:30:48.149Z,0
2016-11-10T05:31:47.249Z,0
2016-11-10T05:32:47.108Z,0
2016-11-10T05:33:47.456Z,0
2016-11-10T05:34:48.632Z,0
2016-11-10T05:35:47.037Z,0
2016-11-10T05:36:48.530Z,0
2016-11-10T05:37:47.466Z,0
2016-11-10T05:38:48.159Z,0
2016-11-10T05:39:48.237Z,0
2016-11-10T05:40:47.089Z,0
2016-11-10T05:41:48.022Z,0
2016-11-10T05:42:48.114Z,0
2016-11-10T05:43:47.293Z,0
2016-11-10T05:44:47.112Z,0
2016-11-10T05:45:48.869Z,0
2016-11-10T05:46:47.485Z,0
2016-11-10T05:47:47.875Z,0
2016-11-10T05:48:47.518Z,0
2016-11-10T05:49:47.994Z,0
2016-11-10T05:50:48.393Z,0
2016-11-10T05:51:47.514Z,0
2016-11-10T05:52:47.616Z,0
2016-11-10T05:53:47.335Z,0
2016-11-10T05:54:47.331Z,0
2016-11-10T05:55:47.378Z,0
2016-11-10T05:56:47.535Z,0
2016-11-10T05:57:48.313Z,0
2016-11-10T05:58:47.756Z,0
2016-11-10T05:59:47.781Z,0
2016-11-10T06:00:48.256Z,0
2016-11-10T06:01:48.341Z,0
2016-11-10T06:02:48.111Z,0
2016-11-10T06:03:48.099Z,0
2016-11-10T06:04:47.551Z,4
2016-11-10T06:05:50.069Z,4
2016-11-10T06:06:47.765Z,0
2016-11-10T06:07:48.334Z,4
2016-11-10T06:08:48.427Z,4
2016-11-10T06:09:48.283Z,8
2016-11-10T06:10:47.850Z,8
2016-11-10T06:11:49.515Z,8
2016-11-10T06:12:47.468Z,12
2016-11-10T06:13:47.749Z,16
2016-11-10T06:14:47.427Z,16
2016-11-10T06:15:47.392Z,16
2016-11-10T06:16:47.851Z,24
2016-11-10T06:17:47.798Z,24
2016-11-10T06:18:47.411Z,28
2016-11-10T06:19:48.730Z,32
2016-11-10T06:20:48.294Z,36
2016-11-10T06:21:48.186Z,40
2016-11-10T06:22:48.514Z,48
2016-11-10T06:23:47.574Z,56
2016-11-10T06:24:48.542Z,60
2016-11-10T06:25:48.747Z,68
2016-11-10T06:26:48.723Z,72
2016-11-10T06:27:48.232Z,80
2016-11-10T06:28:48.477Z,84
2016-11-10T06:29:48.701Z,88
2016-11-10T06:30:48.035Z,96
2016-11-10T06:31:47.566Z,104
2016-11-10T06:32:48.048Z,108
2016-11-10T06:33:47.962Z,112
2016-11-10T06:34:48.392Z,120
2016-11-10T06:35:48.024Z,124
2016-11-10T06:36:47.777Z,128
2016-11-10T06:37:48.209Z,132
2016-11-10T06:38:47.595Z,136
2016-11-10T06:39:48.279Z,148
2016-11-10T06:40:48.478Z,168
2016-11-10T06:41:48.376Z,192
2016-11-10T06:42:48.201Z,216
2016-11-10T06:43:48.274Z,248
2016-11-10T06:44:48.483Z,272
2016-11-10T06:45:48.316Z,280
2016-11-10T06:46:48.064Z,276
2016-11-10T06:47:47.989Z,276
2016-11-10T06:48:49.240Z,292
2016-11-10T06:49:49.886Z,324
2016-11-10T06:50:48.081Z,384
2016-11-10T06:51:47.845Z,456
2016-11-10T06:52:48.434Z,524
2016-11-10T06:53:47.727Z,580
2016-11-10T06:54:48.503Z,624
2016-11-10T06:55:49.730Z,648
2016-11-10T06:56:49.554Z,660
2016-11-10T06:57:49.462Z,680
2016-11-10T06:58:50.145Z,704
2016-11-10T06:59:49.589Z,752
2016-11-10T07:00:49.545Z,792
2016-11-10T07:01:50.062Z,820
2016-11-10T07:02:50.671Z,828
2016-11-10T07:03:49.267Z,792
2016-11-10T07:04:49.182Z,728
2016-11-10T07:05:49.585Z,672
2016-11-10T07:06:48.423Z,644
2016-11-10T07:07:48.609Z,624
2016-11-10T07:08:47.983Z,628
2016-11-10T07:09:48.340Z,644
2016-11-10T07:10:48.424Z,668
2016-11-10T07:11:49.332Z,672
2016-11-10T07:12:48.278Z,644
2016-11-10T07:13:48.282Z,592
2016-11-10T07:14:48.862Z,552
2016-11-10T07:15:49.204Z,536
2016-11-10T07:16:49.000Z,524
2016-11-10T07:17:48.235Z,544
2016-11-10T07:18:48.509Z,588
2016-11-10T07:19:49.478Z,628
2016-11-10T07:20:48.157Z,648
2016-11-10T07:21:48.122Z,676
2016-11-10T07:22:48.117Z,724
2016-11-10T07:23:49.093Z,816
2016-11-10T07:24:48.628Z,940
2016-11-10T07:25:48.992Z,1048
2016-11-10T07:26:49.552Z,1100
2016-11-10T07:27:48.958Z,1104
2016-11-10T07:28:48.634Z,1104
2016-11-10T07:29:49.243Z,1120
2016-11-10T07:30:49.057Z,1148
2016-11-10T07:31:49.665Z,1208
2016-11-10T07:32:48.494Z,1276
2016-11-10T07:33:49.735Z,1320
2016-11-10T07:34:49.380Z,1328
2016-11-10T07:35:48.965Z,1296
2016-11-10T07:36:49.691Z,1232
2016-11-10T07:37:49.358Z,1172
2016-11-10T07:38:48.689Z,1116
2016-11-10T07:39:48.450Z,1072
2016-11-10T07:40:48.919Z,1064
2016-11-10T07:41:50.404Z,1084
2016-11-10T07:42:48.986Z,1128
2016-11-10T07:43:49.472Z,1200
2016-11-10T07:44:49.076Z,1292
2016-11-10T07:45:49.430Z,1380
2016-11-10T07:46:48.936Z,1408
2016-11-10T07:47:48.920Z,1380
2016-11-10T07:48:48.690Z,1300
2016-11-10T07:49:48.614Z,1224
2016-11-10T07:50:50.316Z,1176
2016-11-10T07:51:49.421Z,1168
2016-11-10T07:52:49.089Z,1204
2016-11-10T07:53:49.058Z,1264
2016-11-10T07:54:49.387Z,1296
2016-11-10T07:55:49.300Z,1296
2016-11-10T07:56:48.967Z,1288
2016-11-10T07:57:49.282Z,1312
2016-11-10T07:58:49.096Z,1360
2016-11-10T07:59:49.389Z,1400
2016-11-10T08:00:50.506Z,1408
2016-11-10T08:01:49.483Z,1384
2016-11-10T08:02:50.359Z,1344
2016-11-10T08:03:49.398Z,1324
2016-11-10T08:04:49.350Z,1328
2016-11-10T08:05:49.441Z,1388
2016-11-10T08:06:49.337Z,1508
2016-11-10T08:07:49.776Z,1644
2016-11-10T08:08:49.389Z,1724
2016-11-10T08:09:49.119Z,1800
2016-11-10T08:10:49.374Z,1896
2016-11-10T08:11:50.098Z,1960
2016-11-10T08:12:49.192Z,1964
2016-11-10T08:13:50.344Z,1964
2016-11-10T08:14:49.547Z,1928
2016-11-10T08:15:49.851Z,1892
2016-11-10T08:16:49.050Z,1924
2016-11-10T08:17:49.120Z,2052
2016-11-10T08:18:49.566Z,2120
2016-11-10T08:19:49.157Z,2100
2016-11-10T08:20:49.016Z,2072
2016-11-10T08:21:49.996Z,2064
2016-11-10T08:22:49.595Z,2112
2016-11-10T08:23:49.691Z,2148
2016-11-10T08:24:49.994Z,2072
2016-11-10T08:25:49.789Z,1972
2016-11-10T08:26:49.107Z,1956
2016-11-10T08:27:49.492Z,1928
2016-11-10T08:28:50.217Z,1856
2016-11-10T08:29:49.879Z,1856
2016-11-10T08:30:49.796Z,1904
2016-11-10T08:31:49.955Z,1852
2016-11-10T08:32:49.394Z,1820
2016-11-10T08:33:50.970Z,1784
2016-11-10T08:34:49.885Z,1636
2016-11-10T08:35:49.851Z,1468
2016-11-10T08:36:49.981Z,1376
2016-11-10T08:37:49.931Z,1292
2016-11-10T08:38:50.033Z,1240
2016-11-10T08:39:50.794Z,1216
2016-11-10T08:40:49.412Z,1200
2016-11-10T08:41:50.851Z,1204
2016-11-10T08:42:49.740Z,1260
2016-11-10T08:43:49.884Z,1352
2016-11-10T08:44:50.353Z,1444
2016-11-10T08:45:50.263Z,1588
2016-11-10T08:46:50.344Z,1796
2016-11-10T08:47:49.820Z,2020
2016-11-10T08:48:49.996Z,2252
2016-11-10T08:49:49.374Z,2488
2016-11-10T08:50:49.205Z,2716
2016-11-10T08:51:49.709Z,2864
2016-11-10T08:52:50.814Z,2932
2016-11-10T08:53:49.711Z,2992
2016-11-10T08:54:50.135Z,3100
2016-11-10T08:55:50.101Z,3224
2016-11-10T08:56:50.116Z,3364
2016-11-10T08:57:50.082Z,3444
2016-11-10T08:58:49.849Z,3488
2016-11-10T08:59:50.013Z,3544
2016-11-10T09:00:50.597Z,3628
2016-11-10T09:01:49.663Z,3752
2016-11-10T09:02:50.232Z,3852
2016-11-10T09:03:50.349Z,3900
2016-11-10T09:04:51.458Z,3828
2016-11-10T09:05:50.705Z,3704
2016-11-10T09:06:49.964Z,3644
2016-11-10T09:07:50.706Z,3688
2016-11-10T09:08:49.800Z,3812
2016-11-10T09:09:50.100Z,3968
2016-11-10T09:10:50.233Z,4112
2016-11-10T09:11:50.764Z,4208
2016-11-10T09:12:50.556Z,4256
2016-11-10T09:13:50.280Z,4284
2016-11-10T09:14:50.943Z,4340
2016-11-10T09:15:49.866Z,4448
2016-11-10T09:16:50.346Z,4620
2016-11-10T09:17:49.910Z,4852
2016-11-10T09:18:50.277Z,5076
2016-11-10T09:19:50.842Z,5220
2016-11-10T09:20:50.677Z,5272
2016-11-10T09:21:50.538Z,5280
2016-11-10T09:22:50.001Z,5340
2016-11-10T09:23:49.931Z,5372
2016-11-10T09:24:50.406Z,5224
2016-11-10T09:25:50.877Z,4884
2016-11-10T09:26:51.105Z,4492
2016-11-10T09:27:51.574Z,4204
2016-11-10T09:28:50.855Z,4128
2016-11-10T09:29:50.783Z,4216
2016-11-10T09:30:50.369Z,4408
2016-11-10T09:31:51.216Z,4480
2016-11-10T09:32:50.302Z,4332
2016-11-10T09:33:50.752Z,4124
2016-11-10T09:34:50.397Z,4016
2016-11-10T09:35:50.501Z,4024
2016-11-10T09:36:50.378Z,4028
2016-11-10T09:37:50.606Z,4116
2016-11-10T09:38:51.139Z,4288
2016-11-10T09:39:50.490Z,4452
2016-11-10T09:40:50.213Z,4524
2016-11-10T09:41:51.709Z,4620
2016-11-10T09:42:52.042Z,4808
2016-11-10T09:43:50.330Z,5036
2016-11-10T09:44:51.148Z,5304
2016-11-10T09:45:50.286Z,5540
2016-11-10T09:46:50.375Z,5796
2016-11-10T09:47:51.074Z,6080
2016-11-10T09:48:51.504Z,6432
2016-11-10T09:49:50.846Z,6708
2016-11-10T09:50:50.355Z,6724
2016-11-10T09:51:50.914Z,6396
2016-11-10T09:52:50.881Z,5896
2016-11-10T09:53:51.303Z,5452
2016-11-10T09:54:50.940Z,5256
2016-11-10T09:55:51.694Z,5192
2016-11-10T09:56:51.408Z,5156
2016-11-10T09:57:51.022Z,5168
2016-11-10T09:58:50.833Z,5304
2016-11-10T09:59:51.358Z,5612
2016-11-10T10:00:51.884Z,6060
2016-11-10T10:01:51.630Z,6504
2016-11-10T10:02:51.620Z,6828
2016-11-10T10:03:51.157Z,7164
2016-11-10T10:04:51.532Z,7580
2016-11-10T10:05:50.978Z,8120
2016-11-10T10:06:50.938Z,8804
2016-11-10T10:07:50.975Z,9536
2016-11-10T10:08:51.519Z,10252
2016-11-10T10:09:51.285Z,10788
2016-11-10T10:10:51.135Z,10992
2016-11-10T10:11:51.024Z,10692
2016-11-10T10:12:50.986Z,9844
2016-11-10T10:13:50.695Z,8684
2016-11-10T10:14:50.838Z,7568
2016-11-10T10:15:51.913Z,6732
2016-11-10T10:16:50.970Z,6340
2016-11-10T10:17:51.200Z,6268
2016-11-10T10:18:51.524Z,6340
2016-11-10T10:19:51.390Z,6260
2016-11-10T10:20:50.949Z,5956
2016-11-10T10:21:51.815Z,5524
2016-11-10T10:22:51.618Z,5136
2016-11-10T10:23:51.520Z,5036
2016-11-10T10:24:51.379Z,5052
2016-11-10T10:25:51.888Z,5192
2016-11-10T10:26:51.141Z,5344
2016-11-10T10:27:52.026Z,5412
2016-11-10T10:28:51.358Z,5340
2016-11-10T10:29:50.666Z,5228
2016-11-10T10:30:51.088Z,5172
2016-11-10T10:31:51.814Z,5208
2016-11-10T10:32:51.720Z,5356
2016-11-10T10:33:52.261Z,5772
2016-11-10T10:34:51.548Z,6408
2016-11-10T10:35:51.083Z,6928
2016-11-10T10:36:51.430Z,7256
2016-11-10T10:37:51.053Z,7368
2016-11-10T10:38:52.339Z,7632
2016-11-10T10:39:51.753Z,8172
2016-11-10T10:40:51.224Z,8832
2016-11-10T10:41:51.201Z,9468
2016-11-10T10:42:51.858Z,10052
2016-11-10T10:43:51.109Z,10612
2016-11-10T10:44:51.892Z,11272
2016-11-10T10:45:52.119Z,11800
2016-11-10T10:46:52.766Z,11976
2016-11-10T10:47:51.124Z,11928
2016-11-10T10:48:51.725Z,11780
2016-11-10T10:49:51.792Z,11660
2016-11-10T10:50:51.655Z,11616
2016-11-10T10:51:53.073Z,11396
2016-11-10T10:52:52.001Z,11024
2016-11-10T10:53:51.866Z,10640
2016-11-10T10:54:51.533Z,10588
2016-11-10T10:55:51.249Z,10756
2016-11-10T10:56:52.038Z,10840
2016-11-10T10:57:52.294Z,10856
2016-11-10T10:58:52.000Z,10836
2016-11-10T10:59:51.354Z,10744
2016-11-10T11:00:52.490Z,10612
2016-11-10T11:01:52.506Z,10380
2016-11-10T11:02:52.307Z,9924
2016-11-10T11:03:52.735Z,9316
2016-11-10T11:04:52.282Z,8536
2016-11-10T11:05:51.634Z,7636
2016-11-10T11:06:51.717Z,6800
2016-11-10T11:07:52.459Z,6056
2016-11-10T11:08:51.653Z,5452
2016-11-10T11:09:52.364Z,5132
2016-11-10T11:10:52.089Z,5084
2016-11-10T11:11:52.503Z,5100
2016-11-10T11:12:52.935Z,5024
2016-11-10T11:13:52.627Z,4784
2016-11-10T11:14:51.786Z,4560
2016-11-10T11:15:51.475Z,4456
2016-11-10T11:16:51.644Z,4448
2016-11-10T11:17:52.369Z,4520
2016-11-10T11:18:51.813Z,4664
2016-11-10T11:19:53.149Z,4896
2016-11-10T11:20:51.741Z,5188
2016-11-10T11:21:51.560Z,5512
2016-11-10T11:22:51.624Z,5776
2016-11-10T11:23:52.023Z,6040
2016-11-10T11:24:52.500Z,6320
2016-11-10T11:25:52.113Z,6576
2016-11-10T11:26:52.534Z,6768
2016-11-10T11:27:51.896Z,6864
2016-11-10T11:28:51.510Z,6832
2016-11-10T11:29:51.965Z,6668
2016-11-10T11:30:51.734Z,6376
2016-11-10T11:31:52.169Z,6064
2016-11-10T11:32:52.021Z,5872
2016-11-10T11:33:52.426Z,5924
2016-11-10T11:34:52.493Z,6184
2016-11-10T11:35:52.372Z,6508
2016-11-10T11:36:52.608Z,6768
2016-11-10T11:37:52.374Z,6872
2016-11-10T11:38:52.245Z,6844
2016-11-10T11:39:52.900Z,6788
2016-11-10T11:40:52.988Z,6720
2016-11-10T11:41:52.456Z,6612
2016-11-10T11:42:52.395Z,6432
2016-11-10T11:43:52.983Z,6256
2016-11-10T11:44:51.694Z,6120
2016-11-10T11:45:52.765Z,6028
2016-11-10T11:46:52.846Z,5948
2016-11-10T11:47:53.016Z,5920
2016-11-10T11:48:52.896Z,5960
2016-11-10T11:49:52.385Z,6048
2016-11-10T11:50:53.173Z,6076
2016-11-10T11:51:52.965Z,6000
2016-11-10T11:52:53.009Z,5904
2016-11-10T11:53:52.748Z,5836
2016-11-10T11:54:53.532Z,5856
2016-11-10T11:55:52.735Z,5940
2016-11-10T11:56:53.767Z,5980
2016-11-10T11:57:52.800Z,5972
2016-11-10T11:58:53.554Z,5932
2016-11-10T11:59:53.365Z,5916
2016-11-10T12:00:52.389Z,5908
2016-11-10T12:01:52.406Z,5912
2016-11-10T12:02:52.730Z,5832
2016-11-10T12:03:52.647Z,5656
2016-11-10T12:04:53.415Z,5416
2016-11-10T12:05:52.429Z,5304
2016-11-10T12:06:52.209Z,5400
2016-11-10T12:07:52.301Z,5620
2016-11-10T12:08:53.638Z,5896
2016-11-10T12:09:52.883Z,6128
2016-11-10T12:10:53.051Z,6428
2016-11-10T12:11:53.095Z,7072
2016-11-10T12:12:52.756Z,8104
2016-11-10T12:13:52.326Z,9008
2016-11-10T12:14:54.817Z,9668
2016-11-10T12:15:53.150Z,10128
2016-11-10T12:16:53.123Z,10520
2016-11-10T12:17:53.005Z,10896
2016-11-10T12:18:52.651Z,11132
2016-11-10T12:19:53.519Z,11188
2016-11-10T12:20:52.935Z,11108
2016-11-10T12:21:52.921Z,10924
2016-11-10T12:22:53.069Z,10716
2016-11-10T12:23:52.989Z,10596
2016-11-10T12:24:52.491Z,10596
2016-11-10T12:25:53.071Z,10648
2016-11-10T12:26:53.061Z,10660
2016-11-10T12:27:52.819Z,10592
2016-11-10T12:28:53.425Z,10352
2016-11-10T12:29:53.063Z,9852
2016-11-10T12:30:52.529Z,9344
2016-11-10T12:31:53.648Z,9172
2016-11-10T12:32:53.513Z,9344
2016-11-10T12:33:53.804Z,9508
2016-11-10T12:34:52.605Z,9512
2016-11-10T12:35:52.766Z,9372
2016-11-10T12:36:54.512Z,9092
2016-11-10T12:37:54.900Z,8600
2016-11-10T12:38:53.282Z,7948
2016-11-10T12:39:52.696Z,7416
2016-11-10T12:40:53.532Z,7372
2016-11-10T12:41:52.917Z,7720
2016-11-10T12:42:53.689Z,8020
2016-11-10T12:43:53.862Z,7964
2016-11-10T12:44:53.376Z,7684
2016-11-10T12:45:53.505Z,7372
2016-11-10T12:46:52.756Z,7288
2016-11-10T12:47:54.411Z,7496
2016-11-10T12:48:52.754Z,7780
2016-11-10T12:49:53.355Z,7828
2016-11-10T12:50:54.432Z,7508
2016-11-10T12:51:54.304Z,7012
2016-11-10T12:52:53.391Z,6796
2016-11-10T12:53:52.814Z,6904
2016-11-10T12:54:53.656Z,7160
2016-11-10T12:55:53.253Z,7500
2016-11-10T12:56:53.358Z,7716
2016-11-10T12:57:53.715Z,7620
2016-11-10T12:58:53.552Z,7248
2016-11-10T12:59:53.481Z,6768
2016-11-10T13:00:53.057Z,6380
2016-11-10T13:01:53.650Z,5940
2016-11-10T13:02:53.712Z,5324
2016-11-10T13:03:53.817Z,4980
2016-11-10T13:04:53.142Z,4940
2016-11-10T13:05:53.482Z,4744
2016-11-10T13:06:54.581Z,4440
2016-11-10T13:07:54.042Z,4336
2016-11-10T13:08:53.409Z,4332
2016-11-10T13:09:53.987Z,4104
2016-11-10T13:10:53.496Z,3892
2016-11-10T13:11:54.141Z,3784
2016-11-10T13:12:54.130Z,3688
2016-11-10T13:13:53.096Z,3544
2016-11-10T13:14:53.579Z,3420
2016-11-10T13:15:53.366Z,3264
2016-11-10T13:16:53.628Z,3172
2016-11-10T13:17:53.701Z,3080
2016-11-10T13:18:53.520Z,3028
2016-11-10T13:19:53.576Z,2964
2016-11-10T13:20:54.261Z,2944
2016-11-10T13:21:54.299Z,2920
2016-11-10T13:22:53.621Z,2856
2016-11-10T13:23:54.011Z,2788
2016-11-10T13:24:55.386Z,2752
2016-11-10T13:25:53.829Z,2608
2016-11-10T13:26:54.417Z,2420
2016-11-10T13:27:54.386Z,2376
2016-11-10T13:28:53.390Z,2396
2016-11-10T13:29:54.542Z,2424
2016-11-10T13:30:53.888Z,2496
2016-11-10T13:31:53.916Z,2596
2016-11-10T13:32:54.896Z,2720
2016-11-10T13:33:54.258Z,2868
2016-11-10T13:34:54.284Z,3016
2016-11-10T13:35:55.117Z,3152
2016-11-10T13:36:54.956Z,3280
2016-11-10T13:37:54.009Z,3400
2016-11-10T13:38:54.159Z,3556
2016-11-10T13:39:54.701Z,3708
2016-11-10T13:40:54.232Z,3804
2016-11-10T13:41:54.086Z,3876
2016-11-10T13:42:54.840Z,3960
2016-11-10T13:43:55.238Z,3996
2016-11-10T13:44:54.276Z,3944
2016-11-10T13:45:54.543Z,3828
2016-11-10T13:46:53.848Z,3752
2016-11-10T13:47:54.151Z,3796
2016-11-10T13:48:54.516Z,3912
2016-11-10T13:49:54.561Z,4016
2016-11-10T13:50:54.795Z,4024
2016-11-10T13:51:53.930Z,4044
2016-11-10T13:52:53.984Z,4072
2016-11-10T13:53:54.502Z,4020
2016-11-10T13:54:55.095Z,3864
2016-11-10T13:55:54.097Z,3736
2016-11-10T13:56:55.062Z,3704
2016-11-10T13:57:54.072Z,3716